Time;durP1;ratioP1;P1;durP2;ratioP2;P2;SDS_P1;SDS_P2;PMS_P1;PMS_P2;Temp;Humidity;BMP_temperature;BMP_pressure;BME280_temperature;BME280_humidity;BME280_pressure;Samples;Min_cycle;Max_cycle;Signal;HPM_P1;HPM_P2
2021/01/09 00:01:23;;;;;;;4.73;2.33;;;;;;;1.19;86.05;101573.78;5070483;28;20262;-73
2021/01/09 00:03:50;;;;;;;9.10;2.50;;;;;;;1.17;86.19;101578.22;5064964;28;20287;-73
2021/01/09 00:06:17;;;;;;;4.60;2.17;;;;;;;1.19;86.13;101579.06;5063982;28;20206;-73
2021/01/09 00:08:45;;;;;;;7.07;2.33;;;;;;;1.22;85.91;101573.72;5060246;28;20222;-73
2021/01/09 00:11:13;;;;;;;6.63;2.43;;;;;;;1.18;86.11;101575.56;5063700;28;20208;-73
2021/01/09 00:13:40;;;;;;;5.37;2.43;;;;;;;1.21;86.14;101572.00;5063662;28;20359;-73
2021/01/09 00:16:07;;;;;;;2.50;1.77;;;;;;;1.09;86.28;101573.06;5064042;28;20216;-73
2021/01/09 00:18:38;;;;;;;5.23;2.23;;;;;;;0.86;86.20;101536.38;5067205;28;20233;-73
2021/01/09 00:21:05;;;;;;;4.20;1.67;;;;;;;1.10;86.18;101573.94;5068024;28;20287;-73
2021/01/09 00:23:32;;;;;;;3.60;2.17;;;;;;;1.06;86.31;101577.53;5063991;28;20198;-73
2021/01/09 00:26:00;;;;;;;6.50;2.10;;;;;;;1.11;86.27;101587.13;5065017;28;20283;-73
2021/01/09 00:28:28;;;;;;;5.37;2.47;;;;;;;1.07;86.27;101595.16;5062935;28;20210;-73
2021/01/09 00:30:55;;;;;;;4.93;2.17;;;;;;;1.04;86.34;101581.97;5061683;28;20234;-73
2021/01/09 00:33:22;;;;;;;3.83;1.80;;;;;;;1.11;86.03;101576.56;5063189;28;20326;-73
2021/01/09 00:35:49;;;;;;;4.37;2.10;;;;;;;1.13;86.08;101585.34;5063853;28;20224;-73
2021/01/09 00:38:17;;;;;;;4.50;2.03;;;;;;;1.05;86.27;101575.78;5060664;28;20657;-73
2021/01/09 00:40:44;;;;;;;6.40;1.83;;;;;;;1.13;86.25;101581.81;5064987;28;20195;-73
2021/01/09 00:43:11;;;;;;;2.57;1.87;;;;;;;1.17;86.08;101587.03;5063572;28;20214;-73
2021/01/09 00:45:39;;;;;;;4.17;2.10;;;;;;;1.03;86.27;101581.09;5064207;28;20215;-73
2021/01/09 00:48:07;;;;;;;3.03;2.00;;;;;;;1.16;86.09;101584.41;5062438;28;20216;-73
2021/01/09 00:50:34;;;;;;;3.93;2.23;;;;;;;1.13;86.14;101582.69;5063586;28;20207;-73
2021/01/09 00:53:01;;;;;;;4.33;2.07;;;;;;;1.15;86.20;101590.59;5060487;28;20223;-73
2021/01/09 00:55:28;;;;;;;3.97;2.30;;;;;;;1.14;86.00;101586.22;5066916;28;20209;-73
2021/01/09 00:57:55;;;;;;;4.13;2.30;;;;;;;1.16;85.93;101579.13;5065360;28;20214;-73
2021/01/09 01:00:23;;;;;;;2.20;1.67;;;;;;;1.12;85.89;101588.88;5065107;28;20718;-73
2021/01/09 01:02:51;;;;;;;5.13;2.13;;;;;;;1.09;86.20;101578.34;5060246;28;20220;-73
2021/01/09 01:05:19;;;;;;;4.27;2.33;;;;;;;1.14;86.07;101586.22;5061980;28;20232;-73
2021/01/09 01:07:46;;;;;;;7.00;2.40;;;;;;;1.09;85.86;101588.06;5064884;28;20199;-73
2021/01/09 01:10:14;;;;;;;4.07;2.00;;;;;;;1.12;85.95;101577.44;5062381;28;20197;-73
2021/01/09 01:12:41;;;;;;;3.43;2.20;;;;;;;1.04;86.06;101584.63;5065446;28;20218;-73
2021/01/09 01:15:09;;;;;;;3.63;2.43;;;;;;;0.93;86.38;101572.44;5060779;28;20207;-73
2021/01/09 01:17:37;;;;;;;2.60;1.70;;;;;;;0.98;86.43;101579.44;5060499;28;20222;-74
2021/01/09 01:20:06;;;;;;;6.47;2.00;;;;;;;1.00;86.61;101575.84;5062308;28;20209;-73
2021/01/09 01:22:33;;;;;;;6.67;2.20;;;;;;;0.88;86.09;101562.81;5062736;28;20211;-73
2021/01/09 01:25:01;;;;;;;3.67;2.07;;;;;;;1.00;86.09;101582.91;5063045;28;20288;-73
2021/01/09 01:27:28;;;;;;;5.10;2.10;;;;;;;0.98;86.16;101584.72;5062607;28;20301;-73
2021/01/09 01:29:56;;;;;;;3.63;2.13;;;;;;;0.92;86.37;101570.69;5063075;28;20563;-73
2021/01/09 01:32:24;;;;;;;2.70;1.67;;;;;;;0.88;86.49;101587.47;5061567;28;20208;-72
2021/01/09 01:34:51;;;;;;;4.13;2.33;;;;;;;0.85;86.28;101581.34;5062920;28;20611;-73
2021/01/09 01:37:19;;;;;;;4.17;2.33;;;;;;;0.89;86.57;101581.28;5064691;28;20261;-73
2021/01/09 01:39:46;;;;;;;7.47;2.50;;;;;;;0.88;86.69;101592.75;5062941;28;20212;-73
2021/01/09 01:42:13;;;;;;;2.83;1.83;;;;;;;1.04;86.26;101590.78;5062724;28;20210;-73
2021/01/09 01:44:40;;;;;;;4.83;2.00;;;;;;;1.05;86.17;101591.66;5062916;28;20200;-73
2021/01/09 01:47:15;;;;;;;4.27;2.13;;;;;;;1.01;86.35;101589.94;5062975;28;20270;-73
2021/01/09 01:49:42;;;;;;;3.17;1.97;;;;;;;0.99;86.10;101586.47;5064752;28;20226;-73
2021/01/09 01:52:09;;;;;;;5.40;2.93;;;;;;;1.02;86.11;101595.22;5066419;28;20221;-73
2021/01/09 01:54:39;;;;;;;5.07;2.13;;;;;;;1.05;85.89;101586.38;5065786;28;20200;-72
2021/01/09 01:57:08;;;;;;;4.90;2.77;;;;;;;0.97;86.07;101596.19;5067705;28;20231;-73
2021/01/09 01:59:36;;;;;;;7.27;2.40;;;;;;;0.99;85.97;101592.63;5067164;28;20206;-73
2021/01/09 02:02:05;;;;;;;11.17;2.37;;;;;;;0.97;86.15;101593.53;5066090;28;20254;-73
2021/01/09 02:04:33;;;;;;;7.87;3.03;;;;;;;1.01;86.08;101592.59;5065653;28;20689;-73
2021/01/09 02:07:03;;;;;;;3.97;2.10;;;;;;;1.07;85.77;101585.44;5067328;28;20215;-73
2021/01/09 02:09:35;;;;;;;5.00;2.47;;;;;;;1.10;85.73;101592.44;5067911;28;20291;-73
2021/01/09 02:12:11;;;;;;;4.23;1.57;;;;;;;1.21;85.59;101593.16;5065836;28;20249;-72
2021/01/09 02:14:41;;;;;;;7.57;2.63;;;;;;;1.13;85.67;101600.34;5065727;28;20315;-73
2021/01/09 02:17:08;;;;;;;4.07;2.50;;;;;;;1.02;85.78;101594.34;5065921;28;20616;-73
2021/01/09 02:19:39;;;;;;;7.17;2.40;;;;;;;1.24;85.15;101598.41;5067348;28;20686;-73
2021/01/09 02:22:09;;;;;;;6.33;2.57;;;;;;;1.12;85.53;101595.94;5073182;28;20203;-73
2021/01/09 02:24:38;;;;;;;3.03;2.03;;;;;;;1.17;85.50;101596.75;5071182;28;20207;-74
2021/01/09 02:27:06;;;;;;;5.27;2.60;;;;;;;1.18;85.36;101593.19;5068021;28;20303;-74
2021/01/09 02:29:43;;;;;;;5.77;1.97;;;;;;;0.95;85.52;101596.22;5063805;28;20663;-73
2021/01/09 02:32:11;;;;;;;5.67;2.53;;;;;;;0.90;85.81;101598.91;5064909;28;20214;-74
2021/01/09 02:34:42;;;;;;;3.17;1.97;;;;;;;1.02;85.62;101592.56;5063543;28;20209;-74
2021/01/09 02:37:09;;;;;;;5.73;2.10;;;;;;;1.11;85.53;101604.78;5069474;28;20540;-74
2021/01/09 02:39:39;;;;;;;4.17;2.00;;;;;;;0.97;86.07;101599.72;5066098;28;20203;-74
2021/01/09 02:42:07;;;;;;;3.97;2.20;;;;;;;0.96;85.93;101597.97;5064516;28;20256;-74
2021/01/09 02:44:35;;;;;;;3.93;2.00;;;;;;;0.95;85.74;101596.22;5066210;28;20606;-74
2021/01/09 02:47:04;;;;;;;6.13;2.60;;;;;;;0.96;85.97;101594.44;5065324;28;20256;-74
2021/01/09 02:49:32;;;;;;;3.97;1.93;;;;;;;0.96;85.89;101575.94;5068174;28;20209;-73
2021/01/09 02:51:59;;;;;;;4.50;2.37;;;;;;;1.06;85.81;101598.69;5068753;28;20209;-73
2021/01/09 02:54:26;;;;;;;5.03;2.67;;;;;;;0.99;85.75;101591.75;5064652;28;20202;-73
2021/01/09 02:56:54;;;;;;;6.03;3.17;;;;;;;1.02;85.60;101607.56;5065757;28;20226;-74
2021/01/09 02:59:21;;;;;;;4.77;2.10;;;;;;;0.90;86.02;101606.81;5064894;28;20204;-74
2021/01/09 03:01:49;;;;;;;8.50;2.20;;;;;;;0.82;86.15;101582.28;5065985;28;20194;-74
2021/01/09 03:04:17;;;;;;;5.47;2.37;;;;;;;0.90;86.03;101604.19;5069065;28;20315;-74
2021/01/09 03:06:44;;;;;;;4.30;2.30;;;;;;;0.89;85.94;101602.44;5068462;28;20209;-74
2021/01/09 03:09:12;;;;;;;6.10;2.13;;;;;;;0.70;85.96;101563.97;5068516;28;20210;-74
2021/01/09 03:11:39;;;;;;;7.87;2.53;;;;;;;0.83;86.34;101607.81;5065901;28;20199;-74
2021/01/09 03:14:08;;;;;;;6.43;2.47;;;;;;;0.79;86.77;101605.25;5064601;28;20206;-73
2021/01/09 03:16:35;;;;;;;5.17;1.80;;;;;;;0.92;86.37;101604.19;5067561;28;20278;-74
2021/01/09 03:19:02;;;;;;;8.87;2.43;;;;;;;0.85;86.05;101592.81;5066238;28;20216;-74
2021/01/09 03:21:29;;;;;;;6.93;2.67;;;;;;;0.88;86.45;101611.25;5063539;28;20700;-74
2021/01/09 03:23:56;;;;;;;4.70;2.60;;;;;;;0.79;86.76;101605.25;5064025;28;20553;-74
2021/01/09 03:26:24;;;;;;;6.57;2.00;;;;;;;0.85;86.84;101610.44;5064556;28;20202;-74
2021/01/09 03:28:51;;;;;;;3.83;2.27;;;;;;;0.89;86.93;101612.13;5064728;28;20206;-74
2021/01/09 03:31:19;;;;;;;7.17;2.27;;;;;;;0.89;86.83;101617.44;5066632;28;20208;-73
2021/01/09 03:33:46;;;;;;;5.00;2.30;;;;;;;0.79;87.30;101619.34;5063418;28;20334;-73
2021/01/09 03:36:13;;;;;;;3.23;2.27;;;;;;;0.74;87.62;101620.28;5061951;28;20230;-73
2021/01/09 03:38:41;;;;;;;4.47;1.93;;;;;;;0.72;87.37;101625.59;5066496;28;20231;-73
2021/01/09 03:41:08;;;;;;;4.33;2.47;;;;;;;0.76;87.85;101631.72;5064295;28;20200;-74
2021/01/09 03:43:36;;;;;;;4.70;2.40;;;;;;;0.75;88.18;101627.31;5065444;28;20212;-73
2021/01/09 03:46:03;;;;;;;2.87;2.07;;;;;;;0.74;87.93;101623.81;5067732;28;20650;-73
2021/01/09 03:48:32;;;;;;;3.33;2.20;;;;;;;0.75;87.80;101624.69;5070953;28;20204;-73
2021/01/09 03:50:59;;;;;;;4.33;2.10;;;;;;;0.74;88.14;101630.88;5070645;28;20196;-73
2021/01/09 03:53:27;;;;;;;3.37;1.90;;;;;;;0.82;87.76;101632.50;5064344;28;20262;-73
2021/01/09 03:55:54;;;;;;;6.20;2.07;;;;;;;0.89;87.47;101636.81;5065757;28;20324;-73
2021/01/09 03:58:21;;;;;;;7.37;2.50;;;;;;;0.82;87.86;101640.44;5067727;28;20209;-73
2021/01/09 04:00:48;;;;;;;4.67;2.70;;;;;;;0.82;87.70;101650.13;5063359;28;20218;-73
2021/01/09 04:03:15;;;;;;;5.13;2.50;;;;;;;0.89;87.74;101643.88;5064368;28;20201;-73
2021/01/09 04:05:43;;;;;;;8.10;2.43;;;;;;;0.82;87.55;101637.78;5065815;28;20203;-73
2021/01/09 04:08:10;;;;;;;4.10;2.20;;;;;;;0.79;87.69;101645.75;5063092;28;20212;-73
2021/01/09 04:10:38;;;;;;;4.57;2.40;;;;;;;0.82;87.95;101636.91;5064812;28;20204;-73
2021/01/09 04:13:05;;;;;;;3.87;2.43;;;;;;;0.81;87.81;101641.31;5062229;28;20203;-73
2021/01/09 04:15:32;;;;;;;3.80;2.20;;;;;;;0.82;87.72;101645.72;5065197;28;20203;-74
2021/01/09 04:18:00;;;;;;;5.50;2.53;;;;;;;0.84;87.71;101640.41;5069413;28;20552;-73
2021/01/09 04:20:31;;;;;;;3.10;1.93;;;;;;;0.80;87.80;101646.63;5066584;28;20217;-74
2021/01/09 04:22:59;;;;;;;5.80;2.47;;;;;;;0.76;88.05;101632.59;5065532;28;20219;-74
2021/01/09 04:25:26;;;;;;;11.07;7.30;;;;;;;0.79;87.87;101642.25;5063594;28;20294;-74
2021/01/09 04:27:53;;;;;;;5.47;2.70;;;;;;;0.76;87.82;101629.94;5071820;28;20203;-74
2021/01/09 04:30:21;;;;;;;4.87;2.63;;;;;;;0.69;88.15;101628.28;5068234;28;21923;-74
2021/01/09 04:32:48;;;;;;;5.10;2.80;;;;;;;0.85;88.29;101643.03;5066619;28;20227;-74
2021/01/09 04:35:15;;;;;;;5.20;2.43;;;;;;;0.79;88.47;101637.84;5066237;28;20495;-74
2021/01/09 04:37:43;;;;;;;3.27;2.07;;;;;;;0.82;88.13;101639.56;5066367;28;20230;-74
2021/01/09 04:40:12;;;;;;;5.97;2.10;;;;;;;0.80;88.47;101644.00;5065825;28;20202;-74
2021/01/09 04:42:39;;;;;;;3.17;2.03;;;;;;;0.89;88.34;101643.88;5066440;28;20209;-74
2021/01/09 04:45:07;;;;;;;5.57;2.40;;;;;;;0.81;88.36;101636.03;5065422;28;20207;-74
2021/01/09 04:47:39;;;;;;;4.37;2.63;;;;;;;0.88;88.44;101643.00;5066836;28;20567;-74
2021/01/09 04:50:07;;;;;;;4.53;2.40;;;;;;;0.96;88.59;101644.69;5065604;28;20200;-74
2021/01/09 04:52:35;;;;;;;2.83;1.90;;;;;;;0.87;88.43;101635.06;5067288;28;20296;-74
2021/01/09 04:55:03;;;;;;;6.20;2.17;;;;;;;0.91;88.37;101653.53;5080881;28;20655;-74
2021/01/09 04:57:32;;;;;;;3.93;1.97;;;;;;;0.86;88.82;101639.50;5067130;28;20416;-74
2021/01/09 05:00:00;;;;;;;4.43;2.10;;;;;;;0.92;88.24;101636.78;5066090;28;20238;-74
2021/01/09 05:02:28;;;;;;;8.50;3.17;;;;;;;0.95;88.47;101648.22;5064861;28;20766;-74
2021/01/09 05:04:55;;;;;;;5.30;2.63;;;;;;;0.97;88.41;101649.06;5066432;28;20198;-74
2021/01/09 05:07:22;;;;;;;5.53;2.47;;;;;;;0.97;88.41;101647.31;5066689;28;20209;-74
2021/01/09 05:09:49;;;;;;;3.17;2.00;;;;;;;0.97;88.15;101643.78;5064213;28;20198;-74
2021/01/09 05:12:17;;;;;;;6.73;2.57;;;;;;;0.92;88.36;101647.38;5066893;28;20209;-74
2021/01/09 05:14:45;;;;;;;4.90;2.63;;;;;;;0.94;88.18;101642.06;5067395;28;20295;-74
2021/01/09 05:17:12;;;;;;;4.20;2.17;;;;;;;0.95;88.17;101642.94;5063574;28;20236;-74
2021/01/09 05:19:41;;;;;;;4.23;2.13;;;;;;;1.01;88.02;101643.72;5065496;28;20286;-74
2021/01/09 05:22:09;;;;;;;9.27;2.67;;;;;;;0.89;88.46;101647.38;5063180;28;20204;-74
2021/01/09 05:24:37;;;;;;;8.37;3.07;;;;;;;0.98;88.19;101645.53;5062556;28;20209;-74
2021/01/09 05:27:06;;;;;;;4.23;2.10;;;;;;;0.70;88.14;101608.88;5063010;28;20200;-73
2021/01/09 05:29:34;;;;;;;3.87;2.20;;;;;;;0.93;88.51;101646.47;5063383;28;20201;-74
2021/01/09 05:32:05;;;;;;;3.73;2.40;;;;;;;1.01;88.28;101653.41;5063897;28;20680;-74
2021/01/09 05:34:44;;;;;;;6.50;2.30;;;;;;;1.01;88.12;101653.41;5064629;28;20713;-74
2021/01/09 05:37:20;;;;;;;7.97;2.67;;;;;;;1.03;87.90;101656.91;5064405;28;21056;-74
2021/01/09 05:39:49;;;;;;;6.33;2.93;;;;;;;1.03;87.91;101665.72;5066137;28;20261;-74
2021/01/09 05:42:21;;;;;;;6.20;2.73;;;;;;;1.05;88.00;101671.00;5066854;28;20199;-74
2021/01/09 05:44:50;;;;;;;3.87;2.27;;;;;;;1.10;87.38;101674.44;5066365;28;20210;-74
2021/01/09 05:47:20;;;;;;;5.37;2.73;;;;;;;1.13;87.48;101684.97;5066790;28;20200;-74
2021/01/09 05:49:47;;;;;;;8.27;2.57;;;;;;;1.22;87.17;101688.38;5067006;28;20576;-74
2021/01/09 05:52:15;;;;;;;6.37;3.30;;;;;;;1.33;87.25;101688.22;5066619;28;20386;-74
2021/01/09 05:54:42;;;;;;;8.47;2.10;;;;;;;1.40;86.87;101689.00;5067622;28;20281;-74
2021/01/09 05:57:17;;;;;;;5.00;2.37;;;;;;;1.50;86.57;101688.81;5065369;28;20216;-74
2021/01/09 05:59:45;;;;;;;7.93;2.57;;;;;;;1.47;86.32;101691.53;5091858;28;20203;-74
2021/01/09 06:02:12;;;;;;;4.60;2.67;;;;;;;1.55;86.44;101681.72;5064493;28;20791;-74
2021/01/09 06:04:43;;;;;;;8.07;2.70;;;;;;;1.62;86.29;101694.84;5065209;28;20303;-74
2021/01/09 06:07:19;;;;;;;7.40;2.50;;;;;;;1.65;85.88;101690.38;5064293;28;20309;-75
2021/01/09 06:09:53;;;;;;;5.00;2.70;;;;;;;1.71;85.93;101694.69;5061916;28;20194;-74
2021/01/09 06:12:22;;;;;;;6.20;2.33;;;;;;;1.61;85.87;101669.28;5064541;28;20303;-74
2021/01/09 06:14:50;;;;;;;6.77;2.90;;;;;;;1.86;85.69;101699.75;5095088;28;20202;-74
2021/01/09 06:17:21;;;;;;;8.10;2.87;;;;;;;1.85;85.75;101708.59;5061349;28;20223;-74
2021/01/09 06:19:49;;;;;;;7.20;2.70;;;;;;;1.84;85.20;101712.16;5062512;28;20286;-74
2021/01/09 06:22:17;;;;;;;4.93;2.40;;;;;;;1.89;85.48;101714.72;5075824;28;20201;-74
2021/01/09 06:24:44;;;;;;;4.07;2.47;;;;;;;1.84;85.18;101722.75;5060501;28;20647;-74
2021/01/09 06:27:21;;;;;;;5.57;2.60;;;;;;;1.82;84.89;101721.88;5061827;28;20192;-74
2021/01/09 06:29:50;;;;;;;5.03;2.53;;;;;;;1.65;85.05;101719.50;5061920;28;20200;-74
2021/01/09 06:32:20;;;;;;;3.77;2.17;;;;;;;1.70;85.40;101724.72;5063318;28;20200;-74
2021/01/09 06:34:50;;;;;;;5.53;2.50;;;;;;;1.73;84.90;101724.66;5063763;28;20231;-73
2021/01/09 06:37:22;;;;;;;5.30;2.37;;;;;;;1.79;85.13;101730.72;5064565;28;20216;-74
2021/01/09 06:39:50;;;;;;;5.33;2.50;;;;;;;1.78;85.06;101728.97;5068714;28;20195;-74
2021/01/09 06:42:20;;;;;;;4.97;2.43;;;;;;;1.69;84.93;101717.66;5068567;28;20286;-74
2021/01/09 06:44:51;;;;;;;6.33;2.40;;;;;;;1.63;84.87;101738.94;5068164;28;20236;-74
2021/01/09 06:47:26;;;;;;;4.70;2.70;;;;;;;1.66;84.93;101733.59;5066770;28;20204;-74
2021/01/09 06:49:55;;;;;;;5.90;2.47;;;;;;;1.45;85.00;101735.66;5068386;28;20690;-73
2021/01/09 06:52:59;;;;;;;4.40;2.67;;;;;;;1.38;85.15;101736.66;5068718;28;21582;-74
2021/01/09 06:56:02;;;;;;;6.17;2.57;;;;;;;1.35;85.33;101739.34;5068282;28;20212;-74
2021/01/09 06:58:33;;;;;;;4.83;2.47;;;;;;;1.45;85.14;101740.06;5068957;28;20636;-73
2021/01/09 07:01:28;;;;;;;7.20;2.70;;;;;;;1.45;85.12;101738.31;5067451;28;20235;-74
2021/01/09 07:03:55;;;;;;;3.80;2.27;;;;;;;1.46;85.15;101732.13;5009665;28;20281;-74
2021/01/09 07:06:56;;;;;;;4.10;2.57;;;;;;;1.51;84.92;101735.56;5097496;28;20688;-74
2021/01/09 07:09:26;;;;;;;4.00;2.30;;;;;;;1.35;85.10;101738.47;5068174;28;20215;-74
2021/01/09 07:11:54;;;;;;;8.83;2.23;;;;;;;1.44;85.33;101739.19;5066450;28;20212;-74
2021/01/09 07:14:22;;;;;;;3.50;2.30;;;;;;;1.46;84.62;101732.13;5067765;28;20201;-74
2021/01/09 07:16:49;;;;;;;7.00;2.67;;;;;;;1.52;84.84;101732.03;5068404;28;20717;-74
2021/01/09 07:19:16;;;;;;;3.27;2.30;;;;;;;1.46;84.86;101732.13;5065074;28;20279;-74
2021/01/09 07:21:46;;;;;;;3.23;2.33;;;;;;;1.37;85.23;101740.19;5067502;28;20198;-74
2021/01/09 07:24:17;;;;;;;16.63;8.43;;;;;;;1.27;84.62;101701.53;5066426;28;20215;-74
2021/01/09 07:26:48;;;;;;;5.00;3.43;;;;;;;1.54;85.21;101734.69;5067451;28;20204;-73
2021/01/09 07:29:24;;;;;;;9.27;2.97;;;;;;;1.59;85.24;101737.25;5068119;28;20204;-73
2021/01/09 07:31:53;;;;;;;6.73;2.67;;;;;;;1.65;85.34;101745.09;5065074;28;20662;-74
2021/01/09 07:34:22;;;;;;;3.77;2.30;;;;;;;1.64;85.50;101746.00;5062984;28;20329;-74
2021/01/09 07:36:53;;;;;;;4.43;2.73;;;;;;;1.66;85.28;101747.72;5067629;28;20606;-74
2021/01/09 07:39:23;;;;;;;5.27;2.70;;;;;;;1.73;84.99;101751.13;5067025;28;20202;-74
2021/01/09 07:41:51;;;;;;;5.73;2.87;;;;;;;1.40;85.02;101699.59;5068725;28;21097;-74
2021/01/09 07:44:20;;;;;;;7.00;2.43;;;;;;;1.51;85.31;101739.97;5068054;28;20203;-74
2021/01/09 07:46:52;;;;;;;3.50;2.40;;;;;;;1.52;85.77;101744.38;5068783;28;20206;-74
2021/01/09 07:49:27;;;;;;;4.07;2.40;;;;;;;1.42;85.21;101725.13;5067071;28;20263;-74
2021/01/09 07:52:00;;;;;;;5.47;2.77;;;;;;;1.48;85.09;101738.25;5068038;28;20204;-74
2021/01/09 07:54:34;;;;;;;10.70;3.20;;;;;;;1.42;85.39;101743.66;5068275;28;20215;-74
2021/01/09 07:57:03;;;;;;;7.63;3.07;;;;;;;1.26;85.69;101749.19;5066276;28;20266;-74
2021/01/09 07:59:30;;;;;;;4.77;2.60;;;;;;;1.33;85.89;101746.44;5067507;28;20231;-74
2021/01/09 08:01:57;;;;;;;5.40;3.07;;;;;;;1.44;85.76;101739.19;5067356;28;20220;-74
2021/01/09 08:04:25;;;;;;;8.40;2.67;;;;;;;1.45;85.48;101738.31;5065912;28;20214;-74
2021/01/09 08:06:52;;;;;;;6.80;2.67;;;;;;;1.58;85.36;101739.03;5066971;28;20928;-74
2021/01/09 08:09:27;;;;;;;11.53;5.10;;;;;;;1.51;85.47;101745.28;5069383;28;20204;-74
2021/01/09 08:12:02;;;;;;;7.57;2.70;;;;;;;1.60;85.09;101741.66;5064672;28;20204;-74
2021/01/09 08:14:29;;;;;;;7.23;4.30;;;;;;;1.52;85.05;101736.44;5069122;28;20220;-74
2021/01/09 08:17:09;;;;;;;6.73;2.80;;;;;;;1.65;84.96;101747.75;5068579;28;20208;-74
2021/01/09 08:19:37;;;;;;;5.03;2.83;;;;;;;1.29;85.12;101697.09;5064704;28;20216;-74
2021/01/09 08:22:05;;;;;;;6.37;2.70;;;;;;;1.63;85.11;101747.75;5068423;28;20219;-74
2021/01/09 08:24:32;;;;;;;5.60;3.00;;;;;;;1.69;85.13;101750.31;5067576;28;20200;-74
2021/01/09 08:27:01;;;;;;;5.77;2.93;;;;;;;1.81;84.66;101758.06;5066142;28;20196;-74
2021/01/09 08:29:29;;;;;;;9.33;3.20;;;;;;;1.79;84.74;101764.28;5065435;28;20205;-74
2021/01/09 08:31:56;;;;;;;6.87;2.93;;;;;;;1.82;84.62;101766.88;5065128;28;20286;-74
2021/01/09 08:34:24;;;;;;;8.33;2.97;;;;;;;1.53;84.08;101715.28;5068566;28;20266;-74
2021/01/09 08:36:54;;;;;;;11.20;2.90;;;;;;;1.88;84.30;101766.81;5069094;28;20218;-74
2021/01/09 08:39:21;;;;;;;6.93;2.53;;;;;;;1.58;84.36;101722.25;5066845;28;20204;-74
2021/01/09 08:41:48;;;;;;;10.10;3.00;;;;;;;1.88;84.06;101771.22;5064654;28;21106;-74
2021/01/09 08:44:17;;;;;;;4.87;2.43;;;;;;;1.83;84.11;101773.91;5065302;28;20317;-74
2021/01/09 08:46:47;;;;;;;6.17;2.77;;;;;;;1.79;84.20;101772.22;5063579;28;20216;-74
2021/01/09 08:49:25;;;;;;;4.97;2.73;;;;;;;1.82;84.00;101767.75;5064262;28;20211;-74
2021/01/09 08:51:59;;;;;;;5.40;2.37;;;;;;;1.79;84.23;101773.09;5065359;28;20896;-74
2021/01/09 08:54:29;;;;;;;5.57;2.50;;;;;;;1.66;84.31;101749.50;5064684;28;20658;-74
2021/01/09 08:56:57;;;;;;;3.60;2.20;;;;;;;1.77;84.29;101768.72;5096640;28;20197;-74
2021/01/09 08:59:26;;;;;;;6.80;2.67;;;;;;;1.78;84.29;101774.00;5066643;28;20274;-74
2021/01/09 09:01:57;;;;;;;8.13;2.53;;;;;;;1.74;84.51;101766.13;5068014;28;20199;-74
2021/01/09 09:04:25;;;;;;;8.00;2.90;;;;;;;1.62;84.51;101772.50;5063286;28;20306;-74
2021/01/09 09:06:58;;;;;;;5.80;2.47;;;;;;;1.73;84.51;101773.19;5068272;28;20278;-73
2021/01/09 09:09:28;;;;;;;6.90;2.40;;;;;;;1.81;84.20;101775.72;5068198;28;20216;-74
2021/01/09 09:11:56;;;;;;;6.93;2.50;;;;;;;1.76;84.13;101774.91;5067406;28;20211;-74
2021/01/09 09:14:25;;;;;;;5.03;2.50;;;;;;;1.68;84.57;101768.88;5067395;28;20254;-73
2021/01/09 09:17:01;;;;;;;7.47;2.13;;;;;;;1.68;84.26;101768.88;5064596;28;20770;-73
2021/01/09 09:19:35;;;;;;;9.17;2.97;;;;;;;1.14;84.38;101687.59;5067246;28;20206;-73
2021/01/09 09:22:02;;;;;;;192.63;68.50;;;;;;;1.71;84.24;101774.13;5065537;28;20318;-74
2021/01/09 09:24:40;;;;;;;49.53;17.10;;;;;;;1.62;84.57;101768.97;5062964;28;20627;-74
2021/01/09 09:27:21;;;;;;;5.63;3.03;;;;;;;1.67;84.84;101775.06;5064443;28;20192;-74
2021/01/09 09:30:05;;;;;;;4.67;2.83;;;;;;;1.63;84.92;101773.38;5062904;28;20833;-75
2021/01/09 09:32:33;;;;;;;7.50;3.23;;;;;;;1.63;84.85;101771.59;5066198;28;20240;-74
2021/01/09 09:35:18;;;;;;;5.67;2.80;;;;;;;1.64;85.31;101775.13;5064889;28;20207;-74
2021/01/09 09:37:46;;;;;;;6.07;2.63;;;;;;;1.48;84.60;101721.50;5065754;28;20231;-74
2021/01/09 09:40:27;;;;;;;10.17;3.67;;;;;;;1.73;84.96;101769.66;5065255;28;20208;-74
2021/01/09 09:42:55;;;;;;;3.93;2.50;;;;;;;1.66;84.90;101754.78;5065027;28;20647;-74
2021/01/09 09:45:22;;;;;;;5.77;2.40;;;;;;;1.78;84.75;101759.88;5067405;28;20204;-73
2021/01/09 09:47:51;;;;;;;9.10;2.70;;;;;;;1.72;84.97;101758.22;5065257;28;20276;-74
2021/01/09 09:50:19;;;;;;;7.83;3.30;;;;;;;1.71;84.65;101753.81;5064555;28;20315;-74
2021/01/09 09:52:56;;;;;;;8.93;3.20;;;;;;;1.83;84.40;101758.91;5066543;28;20205;-74
2021/01/09 09:55:24;;;;;;;3.47;2.20;;;;;;;1.88;84.40;101756.22;5064395;28;20653;-74
2021/01/09 09:58:07;;;;;;;6.13;2.87;;;;;;;1.88;84.31;101756.22;5066689;28;20248;-74
2021/01/09 10:00:42;;;;;;;5.93;2.57;;;;;;;2.03;84.35;101763.03;5066248;28;20209;-74
2021/01/09 10:03:11;;;;;;;8.90;3.90;;;;;;;2.01;83.98;101755.09;5065964;28;20222;-72
2021/01/09 10:05:38;;;;;;;5.83;3.67;;;;;;;2.06;84.00;101755.91;5069772;28;20207;-75
2021/01/09 10:08:13;;;;;;;6.70;2.80;;;;;;;2.09;83.64;101755.84;5069133;28;20209;-75
2021/01/09 10:10:41;;;;;;;4.53;2.70;;;;;;;2.02;83.80;101751.56;5065706;28;20204;-75
2021/01/09 10:13:08;;;;;;;5.63;2.70;;;;;;;2.11;84.02;101747.88;5071834;28;20946;-74
2021/01/09 10:15:36;;;;;;;7.87;4.10;;;;;;;2.26;83.58;101757.34;5071667;28;20658;-73
2021/01/09 10:18:03;;;;;;;12.77;7.67;;;;;;;2.20;83.57;101746.88;5070412;28;20235;-73
2021/01/09 10:20:31;;;;;;;5.07;2.50;;;;;;;2.26;83.55;101752.94;5070874;28;20197;-75
2021/01/09 10:22:58;;;;;;;9.07;3.13;;;;;;;2.29;83.33;101750.22;5070672;28;20200;-74
2021/01/09 10:25:26;;;;;;;5.77;2.73;;;;;;;2.33;83.28;101741.31;5068836;28;20200;-74
2021/01/09 10:27:53;;;;;;;4.60;2.30;;;;;;;2.24;83.00;101745.91;5068768;28;20208;-74
2021/01/09 10:30:21;;;;;;;6.10;2.80;;;;;;;2.11;83.02;101747.88;5072316;28;20285;-74
2021/01/09 10:32:48;;;;;;;4.70;2.60;;;;;;;2.09;83.00;101747.91;5071781;28;20241;-74
2021/01/09 10:35:15;;;;;;;5.90;2.40;;;;;;;2.17;83.08;101753.97;5070617;28;20288;-74
2021/01/09 10:37:43;;;;;;;5.90;2.83;;;;;;;2.16;83.06;101754.00;5083329;28;20237;-74
2021/01/09 10:40:11;;;;;;;3.93;2.63;;;;;;;2.15;83.07;101752.25;5075900;28;20220;-74
2021/01/09 10:42:38;;;;;;;7.10;2.67;;;;;;;2.21;83.03;101752.13;5078849;28;20216;-74
2021/01/09 10:45:07;;;;;;;6.33;2.93;;;;;;;2.20;82.99;101758.34;5085001;28;20204;-74
2021/01/09 10:47:34;;;;;;;6.53;2.83;;;;;;;2.22;83.08;101755.66;5072182;28;20277;-74
2021/01/09 10:50:01;;;;;;;6.30;3.00;;;;;;;2.26;82.90;101755.56;5070471;28;20300;-74
2021/01/09 10:52:28;;;;;;;5.07;2.33;;;;;;;2.31;82.66;101758.16;5070747;28;20213;-74
2021/01/09 10:54:56;;;;;;;5.30;2.80;;;;;;;2.30;82.85;101757.28;5070767;28;20218;-74
2021/01/09 10:57:23;;;;;;;6.23;2.33;;;;;;;2.32;82.55;101752.81;5080496;28;20555;-74
2021/01/09 10:59:51;;;;;;;6.37;2.67;;;;;;;2.35;82.72;101757.19;5071836;28;20211;-74
2021/01/09 11:02:18;;;;;;;5.03;2.33;;;;;;;2.38;82.65;101757.13;5071596;28;20195;-74
2021/01/09 11:04:45;;;;;;;7.23;2.83;;;;;;;2.38;82.75;101751.84;5070888;28;20212;-74
2021/01/09 11:07:12;;;;;;;4.10;2.63;;;;;;;2.31;82.40;101747.53;5070723;28;20220;-72
2021/01/09 11:09:39;;;;;;;7.37;2.23;;;;;;;2.35;82.57;101741.28;5079225;28;20212;-73
2021/01/09 11:12:08;;;;;;;6.00;2.60;;;;;;;2.42;82.70;101749.09;5067932;28;21088;-74
2021/01/09 11:14:35;;;;;;;54.30;35.23;;;;;;;2.45;82.64;101753.50;5072062;28;20234;-74
2021/01/09 11:17:05;;;;;;;288.83;99.90;;;;;;;2.46;82.76;101739.34;5077350;28;20246;-74
2021/01/09 11:19:33;;;;;;;22.20;7.70;;;;;;;2.53;83.10;101751.56;5071772;28;20250;-74
2021/01/09 11:22:04;;;;;;;12.20;4.47;;;;;;;2.54;82.67;101748.00;5090447;28;20209;-74
2021/01/09 11:24:32;;;;;;;6.77;4.90;;;;;;;2.54;83.24;101741.84;5091958;28;20200;-74
2021/01/09 11:27:02;;;;;;;7.47;3.97;;;;;;;2.58;82.83;101730.28;5077074;28;20197;-74
2021/01/09 11:29:30;;;;;;;7.43;3.67;;;;;;;2.56;82.75;101742.69;5073948;28;20671;-73
2021/01/09 11:31:58;;;;;;;7.17;4.33;;;;;;;2.56;82.84;101743.56;5071898;28;20203;-73
2021/01/09 11:34:26;;;;;;;4.60;2.87;;;;;;;2.52;82.81;101727.75;5088202;28;20650;-73
2021/01/09 11:36:53;;;;;;;3.70;2.30;;;;;;;2.57;82.37;101736.47;5091576;28;20195;-74
2021/01/09 11:39:20;;;;;;;6.53;3.70;;;;;;;2.58;82.41;101725.84;5070635;28;20213;-73
2021/01/09 11:41:48;;;;;;;7.73;2.83;;;;;;;2.64;82.40;101741.63;5068011;28;20213;-74